Apple Valley, Minnesota
Current Conditions -  °F | °C
As of 1:04 PM on Saturday 20 Dec 2014 (Local Time) from KLVN Reporting Station
Overcast Overcast  
Wind Chill: -6°   Ceiling: 1100
Heat Index: -2°   Visibility: 7mi
Dew Point: -3°   Wind: 7mph
Humidity: 93%   Direction: 170°S
Pressure: 30.12"   Gusts: NA
Location:  44.74°N, 93.22°W
Report Text: KLVN 201904Z AUTO 17006KT 7SM OVC011 M02/M03 A3012 RMK AO2
Loading
Personal Weather Stations






























Interactive Weather Map New forecast layout! Learn more

10-Day Weather Forecast

Advertisements
Track Severe Weather on mobile